createdAt,value
2019-02-21T00:00:29.876Z,2.90
2019-02-21T00:02:59.680Z,2.80
2019-02-21T00:05:30.993Z,2.80
2019-02-21T00:08:01.394Z,2.80
2019-02-21T00:10:31.822Z,2.80
2019-02-21T00:13:01.712Z,2.80
2019-02-21T00:15:31.527Z,2.80
2019-02-21T00:18:01.231Z,2.80
2019-02-21T00:20:35.550Z,2.70
2019-02-21T00:23:06.458Z,2.70
2019-02-21T00:25:37.306Z,2.70
2019-02-21T00:28:06.707Z,2.70
2019-02-21T00:30:36.840Z,2.70
2019-02-21T00:33:07.323Z,2.70
2019-02-21T00:35:38.184Z,2.60
2019-02-21T00:38:08.119Z,2.60
2019-02-21T00:40:39.084Z,2.60
2019-02-21T00:43:09.633Z,2.50
2019-02-21T00:45:40.550Z,2.50
2019-02-21T00:48:12.128Z,2.50
2019-02-21T00:50:41.764Z,2.50
2019-02-21T00:53:15.384Z,2.60
2019-02-21T00:55:47.743Z,2.50
2019-02-21T00:58:17.897Z,2.60
2019-02-21T01:00:49.431Z,2.50
2019-02-21T01:03:20.161Z,2.50
2019-02-21T01:05:51.400Z,2.50
2019-02-21T01:08:21.885Z,2.50
2019-02-21T01:10:54.348Z,2.50
2019-02-21T01:13:24.418Z,2.50
2019-02-21T01:15:54.765Z,2.40
2019-02-21T01:18:25.064Z,2.40
2019-02-21T01:20:56.277Z,2.40
2019-02-21T01:23:28.980Z,2.30
2019-02-21T01:26:06.091Z,2.30
2019-02-21T01:28:38.921Z,2.30
2019-02-21T01:31:11.645Z,2.20
2019-02-21T01:33:41.721Z,2.30
2019-02-21T01:36:11.871Z,2.30
2019-02-21T01:38:41.888Z,2.30
2019-02-21T01:41:12.484Z,2.30
2019-02-21T01:43:42.301Z,2.30
2019-02-21T01:46:12.487Z,2.30
2019-02-21T01:48:43.088Z,2.30
2019-02-21T01:51:14.199Z,2.30
2019-02-21T01:53:44.605Z,2.30
2019-02-21T01:56:14.886Z,2.30
2019-02-21T01:58:45.286Z,2.30
2019-02-21T02:01:15.461Z,2.30
2019-02-21T02:03:50.063Z,2.20
2019-02-21T02:06:20.854Z,2.10
2019-02-21T02:08:51.086Z,2.10
2019-02-21T02:11:22.783Z,2.10
2019-02-21T02:13:53.250Z,2.10
2019-02-21T02:16:25.344Z,2.10
2019-02-21T02:18:56.405Z,2.20
2019-02-21T02:21:29.483Z,2.20
2019-02-21T02:24:00.008Z,2.20
2019-02-21T02:26:30.820Z,2.20
2019-02-21T02:29:01.342Z,2.20
2019-02-21T02:31:31.335Z,2.10
2019-02-21T02:34:01.682Z,2.00
2019-02-21T02:36:33.658Z,2.00
2019-02-21T02:39:04.759Z,2.00
2019-02-21T02:41:38.000Z,2.00
2019-02-21T02:44:08.995Z,2.00
2019-02-21T02:46:40.046Z,2.00
2019-02-21T02:49:16.202Z,2.00
2019-02-21T02:51:54.660Z,2.00
2019-02-21T02:54:24.514Z,1.90
2019-02-21T02:56:55.894Z,1.90
2019-02-21T02:59:40.077Z,1.90
2019-02-21T03:01:59.034Z,1.90
2019-02-21T03:04:29.370Z,1.80
2019-02-21T03:06:59.697Z,1.80
2019-02-21T03:09:32.043Z,1.80
2019-02-21T03:12:01.800Z,1.90
2019-02-21T03:14:34.518Z,1.90
2019-02-21T03:17:05.261Z,1.90
2019-02-21T03:19:39.553Z,1.90
2019-02-21T03:22:09.280Z,1.90
2019-02-21T03:24:39.361Z,1.90
2019-02-21T03:27:09.453Z,1.80
2019-02-21T03:29:48.580Z,1.90
2019-02-21T03:32:18.292Z,1.80
2019-02-21T03:34:48.151Z,1.90
2019-02-21T03:37:18.199Z,1.80
2019-02-21T03:39:48.079Z,1.80
2019-02-21T03:42:17.668Z,1.80
2019-02-21T03:44:47.266Z,1.80
2019-02-21T03:47:17.865Z,1.80
2019-02-21T03:49:47.693Z,1.70
2019-02-21T03:52:21.120Z,1.70
2019-02-21T03:54:51.204Z,1.70
2019-02-21T03:57:21.324Z,1.70
2019-02-21T03:59:51.985Z,1.80
2019-02-21T04:02:22.331Z,1.80
2019-02-21T04:04:52.253Z,1.80
2019-02-21T04:07:25.495Z,1.80
2019-02-21T04:09:55.928Z,1.80
2019-02-21T04:12:26.336Z,1.80
2019-02-21T04:14:57.627Z,1.70
2019-02-21T04:17:27.812Z,1.70
2019-02-21T04:19:57.868Z,1.70
2019-02-21T04:22:27.915Z,1.70
2019-02-21T04:25:05.541Z,1.70
2019-02-21T04:27:41.011Z,1.70
2019-02-21T04:30:11.421Z,1.70
2019-02-21T04:32:41.797Z,1.70
2019-02-21T04:35:12.966Z,1.60
2019-02-21T04:37:43.055Z,1.70
2019-02-21T04:40:13.456Z,1.60
2019-02-21T04:42:44.004Z,1.60
2019-02-21T04:45:17.309Z,1.60
2019-02-21T04:47:47.073Z,1.60
2019-02-21T04:50:17.340Z,1.60
2019-02-21T04:52:47.905Z,1.60
2019-02-21T04:55:18.593Z,1.60
2019-02-21T04:57:51.236Z,1.60
2019-02-21T05:00:25.087Z,1.60
2019-02-21T05:02:57.242Z,1.50
2019-02-21T05:05:27.298Z,1.50
2019-02-21T05:07:57.140Z,1.50
2019-02-21T05:10:27.106Z,1.50
2019-02-21T05:13:00.084Z,1.50
2019-02-21T05:15:33.943Z,1.50
2019-02-21T05:18:03.958Z,1.50
2019-02-21T05:20:33.909Z,1.50
2019-02-21T05:23:04.148Z,1.40
2019-02-21T05:25:34.229Z,1.50
2019-02-21T05:28:41.090Z,1.50
2019-02-21T05:31:20.004Z,1.50
2019-02-21T05:34:03.801Z,1.50
2019-02-21T05:37:01.350Z,1.50
2019-02-21T05:39:49.601Z,1.50
2019-02-21T05:42:51.926Z,1.40
2019-02-21T05:45:41.605Z,1.30
2019-02-21T05:48:26.997Z,1.20
2019-02-21T05:51:12.979Z,1.10
2019-02-21T05:53:56.853Z,1.30
2019-02-21T05:56:51.787Z,1.20
2019-02-21T06:00:45.474Z,1.30
2019-02-21T06:03:37.380Z,1.40
2019-02-21T06:10:22.861Z,1.30
2019-02-21T06:13:17.762Z,1.30
2019-02-21T06:16:00.557Z,1.50
2019-02-21T06:18:59.652Z,1.50
2019-02-21T06:22:27.608Z,1.30
2019-02-21T06:29:52.112Z,1.20
2019-02-21T06:32:44.911Z,1.20
2019-02-21T06:35:49.922Z,1.20
2019-02-21T06:39:07.199Z,1.10
2019-02-21T06:41:32.417Z,1.10
2019-02-21T06:44:15.032Z,1.10
2019-02-21T06:46:49.991Z,1.10
2019-02-21T06:49:53.783Z,1.20
2019-02-21T06:53:53.871Z,1.30
2019-02-21T07:24:33.415Z,1.80
2019-02-21T07:27:29.771Z,1.90
2019-02-21T07:30:02.864Z,2.00
2019-02-21T07:33:02.939Z,2.20
2019-02-21T07:35:33.887Z,2.20
2019-02-21T07:38:11.838Z,2.20
2019-02-21T07:44:32.636Z,2.60
2019-02-21T08:02:27.590Z,2.90
2019-02-21T08:05:46.142Z,3.00
2019-02-21T08:08:54.383Z,3.00
2019-02-21T08:14:19.341Z,3.00
2019-02-21T08:16:49.070Z,3.10
2019-02-21T08:19:18.529Z,3.10
2019-02-21T08:21:49.117Z,3.30
2019-02-21T08:24:18.922Z,3.40
2019-02-21T08:26:48.391Z,3.70
2019-02-21T08:29:20.608Z,3.80
2019-02-21T08:31:50.491Z,4.00
2019-02-21T08:34:31.229Z,4.10
2019-02-21T08:37:00.741Z,4.30
2019-02-21T08:39:30.814Z,4.40
2019-02-21T08:42:00.805Z,4.60
2019-02-21T08:44:31.033Z,4.70
2019-02-21T08:47:00.737Z,4.80
2019-02-21T08:49:30.245Z,4.90
2019-02-21T08:52:00.383Z,5.00
2019-02-21T08:54:30.544Z,5.10
2019-02-21T08:57:00.178Z,5.20
2019-02-21T08:59:29.371Z,5.30
2019-02-21T09:02:05.038Z,5.30
2019-02-21T09:04:34.230Z,5.30
2019-02-21T09:07:03.954Z,5.40
2019-02-21T09:09:34.146Z,5.50
2019-02-21T09:12:05.622Z,5.50
2019-02-21T09:14:35.518Z,5.60
2019-02-21T09:17:05.386Z,5.70
2019-02-21T09:19:36.798Z,5.70
2019-02-21T09:22:07.625Z,5.80
2019-02-21T09:24:40.132Z,5.90
2019-02-21T09:27:08.791Z,6.10
2019-02-21T09:29:38.532Z,6.30
2019-02-21T09:32:08.123Z,6.50
2019-02-21T09:34:40.396Z,6.70
2019-02-21T09:37:09.917Z,6.70
2019-02-21T09:39:39.676Z,6.70
2019-02-21T09:42:09.630Z,6.70
2019-02-21T09:44:40.206Z,6.60
2019-02-21T09:47:10.486Z,6.50
2019-02-21T09:49:40.452Z,6.40
2019-02-21T09:52:10.492Z,6.40
2019-02-21T09:54:41.406Z,6.50
2019-02-21T09:57:13.503Z,6.60
2019-02-21T09:59:42.411Z,6.70
2019-02-21T10:02:12.103Z,6.90
2019-02-21T10:04:42.069Z,7.00
2019-02-21T10:07:11.202Z,7.10
2019-02-21T10:09:41.374Z,7.20
2019-02-21T10:12:11.356Z,7.30
2019-02-21T10:14:41.307Z,7.50
2019-02-21T10:17:10.956Z,7.60
2019-02-21T10:19:40.844Z,7.60
2019-02-21T10:22:11.418Z,7.70
2019-02-21T10:24:41.289Z,7.70
2019-02-21T10:27:12.569Z,7.60
2019-02-21T10:29:42.193Z,7.60
2019-02-21T10:32:11.836Z,7.60
2019-02-21T10:34:45.575Z,7.60
2019-02-21T10:37:15.009Z,7.70
2019-02-21T10:39:44.545Z,7.90
2019-02-21T10:42:14.224Z,8.10
2019-02-21T10:44:43.711Z,8.20
2019-02-21T10:48:01.112Z,8.30
2019-02-21T10:50:28.735Z,8.40
2019-02-21T10:52:58.848Z,8.60
2019-02-21T10:55:28.366Z,8.60
2019-02-21T10:57:57.999Z,8.70
2019-02-21T11:00:29.254Z,8.70
2019-02-21T11:02:58.638Z,8.90
2019-02-21T11:05:27.864Z,9.00
2019-02-21T11:07:57.830Z,9.00
2019-02-21T11:10:28.714Z,9.10
2019-02-21T11:12:58.386Z,9.10
2019-02-21T11:15:28.392Z,9.20
2019-02-21T11:25:51.866Z,9.40
2019-02-21T11:28:48.375Z,9.50
2019-02-21T11:31:18.718Z,9.50
2019-02-21T11:33:48.192Z,9.60
2019-02-21T11:36:17.911Z,9.70
2019-02-21T11:38:48.452Z,9.80
2019-02-21T11:41:18.396Z,9.80
2019-02-21T11:43:49.643Z,10.00
2019-02-21T11:46:19.359Z,10.00
2019-02-21T11:48:49.506Z,10.20
2019-02-21T11:51:22.162Z,10.20
2019-02-21T11:53:52.299Z,10.60
2019-02-21T11:56:21.945Z,10.70
2019-02-21T11:58:51.418Z,10.70
2019-02-21T12:01:21.088Z,10.80
2019-02-21T12:03:50.600Z,10.80
2019-02-21T12:06:20.661Z,10.70
2019-02-21T12:08:50.554Z,10.60
2019-02-21T12:11:20.114Z,10.50
2019-02-21T12:13:50.167Z,10.50
2019-02-21T12:16:20.055Z,10.40
2019-02-21T12:18:50.022Z,10.30
2019-02-21T12:21:20.463Z,10.20
2019-02-21T12:23:50.292Z,10.20
2019-02-21T12:26:20.415Z,10.10
2019-02-21T12:28:49.991Z,10.10
2019-02-21T12:31:19.627Z,10.10
2019-02-21T12:33:49.601Z,10.20
2019-02-21T12:36:19.946Z,10.20
2019-02-21T12:38:49.594Z,10.30
2019-02-21T12:41:19.177Z,10.30
2019-02-21T12:43:48.781Z,10.20
2019-02-21T12:46:18.490Z,10.30
2019-02-21T12:48:47.816Z,10.30
2019-02-21T12:51:17.574Z,10.30
2019-02-21T12:53:47.994Z,10.30
2019-02-21T12:56:17.859Z,10.30
2019-02-21T12:58:47.780Z,10.30
2019-02-21T13:01:17.831Z,10.30
2019-02-21T13:03:47.395Z,10.20
2019-02-21T13:06:17.916Z,10.20
2019-02-21T13:08:47.969Z,10.30
2019-02-21T13:11:17.515Z,10.30
2019-02-21T13:13:47.181Z,10.30
2019-02-21T13:16:16.750Z,10.40
2019-02-21T13:18:46.512Z,10.50
2019-02-21T13:21:16.067Z,10.60
2019-02-21T13:23:45.975Z,10.80
2019-02-21T13:26:15.564Z,10.80
2019-02-21T13:28:45.585Z,10.90
2019-02-21T13:31:15.492Z,11.00
2019-02-21T13:33:45.269Z,11.10
2019-02-21T13:36:15.277Z,11.30
2019-02-21T13:38:44.989Z,11.40
2019-02-21T13:41:15.130Z,11.60
2019-02-21T13:43:48.215Z,11.70
2019-02-21T13:46:18.244Z,11.90
2019-02-21T13:48:47.754Z,11.90
2019-02-21T13:51:17.291Z,12.00
2019-02-21T13:53:46.739Z,11.90
2019-02-21T13:56:16.170Z,11.70
2019-02-21T13:58:46.073Z,11.60
2019-02-21T14:01:16.060Z,11.40
2019-02-21T14:03:45.700Z,11.30
2019-02-21T14:06:14.991Z,11.20
2019-02-21T14:08:44.863Z,11.10
2019-02-21T14:11:14.462Z,11.00
2019-02-21T14:13:43.903Z,11.00
2019-02-21T14:16:17.544Z,10.80
2019-02-21T14:18:47.959Z,10.80
2019-02-21T14:21:18.413Z,10.70
2019-02-21T14:23:51.013Z,10.70
2019-02-21T14:26:21.521Z,10.70
2019-02-21T14:28:51.154Z,10.80
2019-02-21T14:31:21.445Z,10.80
2019-02-21T14:33:52.517Z,10.90
2019-02-21T14:36:23.252Z,11.10
2019-02-21T14:38:56.722Z,11.10
2019-02-21T14:41:27.451Z,11.10
2019-02-21T14:44:01.014Z,11.10
2019-02-21T14:46:30.673Z,11.10
2019-02-21T14:49:00.592Z,11.10
2019-02-21T14:51:30.579Z,11.10
2019-02-21T14:54:00.483Z,11.20
2019-02-21T14:56:33.348Z,11.10
2019-02-21T14:59:03.947Z,11.10
2019-02-21T15:01:33.426Z,11.10
2019-02-21T15:04:59.962Z,11.00
2019-02-21T15:13:57.171Z,11.00
2019-02-21T15:24:17.187Z,10.50
2019-02-21T15:27:07.893Z,10.40
2019-02-21T15:29:29.241Z,10.30
2019-02-21T15:32:10.736Z,10.20
2019-02-21T15:34:47.480Z,10.30
2019-02-21T15:56:08.899Z,10.00
2019-02-21T16:07:12.647Z,9.70
2019-02-21T16:23:12.261Z,9.20
2019-02-21T16:26:13.536Z,9.10
2019-02-21T16:29:55.152Z,9.00
2019-02-21T16:50:35.407Z,8.50
2019-02-21T16:53:08.564Z,8.30
2019-02-21T16:55:50.430Z,8.20
2019-02-21T16:58:28.863Z,8.10
2019-02-21T17:00:59.229Z,8.00
2019-02-21T17:03:37.235Z,7.90
2019-02-21T17:06:33.534Z,7.90
2019-02-21T17:09:09.543Z,7.80
2019-02-21T17:11:54.330Z,7.70
2019-02-21T17:14:29.424Z,7.60
2019-02-21T17:17:12.546Z,7.50
2019-02-21T17:19:45.595Z,7.40
2019-02-21T17:22:16.237Z,7.40
2019-02-21T17:24:49.389Z,7.30
2019-02-21T17:27:20.937Z,7.20
2019-02-21T17:29:53.396Z,7.20
2019-02-21T17:32:23.415Z,7.10
2019-02-21T17:34:53.533Z,7.10
2019-02-21T17:37:25.272Z,7.00
2019-02-21T17:39:57.441Z,7.00
2019-02-21T17:42:28.368Z,6.90
2019-02-21T17:44:59.096Z,6.90
2019-02-21T17:47:40.853Z,6.80
2019-02-21T17:50:12.834Z,6.80
2019-02-21T17:52:43.471Z,6.80
2019-02-21T17:55:13.870Z,6.70
2019-02-21T17:57:44.281Z,6.70
2019-02-21T18:00:17.529Z,6.70
2019-02-21T18:02:55.591Z,6.70
2019-02-21T18:05:25.547Z,6.80
2019-02-21T18:07:54.947Z,6.80
2019-02-21T18:10:25.095Z,6.90
2019-02-21T18:20:43.556Z,7.00
2019-02-21T18:23:18.092Z,7.10
2019-02-21T18:25:58.684Z,7.10
2019-02-21T18:28:44.483Z,7.10
2019-02-21T18:31:24.030Z,7.20
2019-02-21T18:34:22.455Z,7.20
2019-02-21T18:40:45.335Z,7.30
2019-02-21T18:43:47.513Z,7.20
2019-02-21T18:46:33.619Z,7.30
2019-02-21T18:49:05.081Z,7.30
2019-02-21T18:51:40.196Z,7.30
2019-02-21T18:54:11.740Z,7.20
2019-02-21T18:57:12.344Z,7.30
2019-02-21T18:59:46.377Z,7.30
2019-02-21T19:05:35.427Z,7.30
2019-02-21T19:08:07.250Z,7.30
2019-02-21T19:10:48.107Z,7.30
2019-02-21T19:13:23.032Z,7.20
2019-02-21T19:16:09.651Z,7.30
2019-02-21T19:18:48.714Z,7.20
2019-02-21T19:21:34.192Z,7.20
2019-02-21T19:24:39.418Z,7.20
2019-02-21T19:27:21.347Z,7.20
2019-02-21T19:33:00.323Z,7.20
2019-02-21T19:35:57.928Z,7.20
2019-02-21T19:38:34.439Z,7.20
2019-02-21T19:56:02.447Z,7.10
2019-02-21T19:58:33.773Z,7.10
2019-02-21T20:04:33.494Z,7.00
2019-02-21T20:07:48.383Z,7.00
2019-02-21T20:10:30.518Z,7.00
2019-02-21T20:13:15.326Z,7.00
2019-02-21T20:15:58.856Z,6.90
2019-02-21T20:18:40.537Z,6.90
2019-02-21T20:21:22.115Z,6.90
2019-02-21T20:24:07.379Z,6.80
2019-02-21T20:26:37.688Z,6.90
2019-02-21T20:29:15.568Z,6.80
2019-02-21T20:31:52.229Z,6.80
2019-02-21T20:34:30.943Z,6.80
2019-02-21T20:37:03.082Z,6.90
2019-02-21T20:39:39.356Z,6.90
2019-02-21T20:42:09.854Z,6.80
2019-02-21T20:44:42.957Z,6.80
2019-02-21T20:47:32.704Z,6.80
2019-02-21T20:50:07.891Z,6.80
2019-02-21T20:52:39.516Z,6.70
2019-02-21T20:55:13.013Z,6.80
2019-02-21T20:57:54.838Z,6.80
2019-02-21T21:00:33.405Z,6.80
2019-02-21T21:03:11.051Z,6.80
2019-02-21T21:05:41.234Z,6.80
2019-02-21T21:08:11.535Z,6.80
2019-02-21T21:11:05.961Z,6.80
2019-02-21T21:13:48.910Z,6.80
2019-02-21T21:16:35.559Z,6.80
2019-02-21T21:19:11.133Z,6.80
2019-02-21T21:21:58.120Z,6.80
2019-02-21T21:24:28.883Z,6.70
2019-02-21T21:27:00.446Z,6.80
2019-02-21T21:29:36.388Z,6.80
2019-02-21T21:32:17.732Z,6.80
2019-02-21T21:34:47.871Z,6.80
2019-02-21T21:37:18.561Z,6.70
2019-02-21T21:39:52.406Z,6.70
2019-02-21T21:42:23.086Z,6.70
2019-02-21T21:47:49.189Z,6.70
2019-02-21T21:50:20.706Z,6.70
2019-02-21T21:52:53.899Z,6.70
2019-02-21T21:55:36.151Z,6.70
2019-02-21T21:58:14.797Z,6.70
2019-02-21T22:01:14.539Z,6.70
2019-02-21T22:03:44.176Z,6.70
2019-02-21T22:06:14.144Z,6.70
2019-02-21T22:08:44.980Z,6.70
2019-02-21T22:11:15.113Z,6.70
2019-02-21T22:13:50.340Z,6.60
2019-02-21T22:16:21.071Z,6.70
2019-02-21T22:18:51.126Z,6.60
2019-02-21T22:21:21.336Z,6.60
2019-02-21T22:23:54.710Z,6.70
2019-02-21T22:26:31.249Z,6.60
2019-02-21T22:28:56.624Z,6.60
2019-02-21T22:31:27.547Z,6.60
2019-02-21T22:33:59.379Z,6.60
2019-02-21T22:36:29.607Z,6.60
2019-02-21T22:39:02.266Z,6.60
2019-02-21T22:41:38.818Z,6.60
2019-02-21T22:44:08.161Z,6.60
2019-02-21T22:46:42.547Z,6.60
2019-02-21T22:49:16.674Z,6.60
2019-02-21T22:52:00.502Z,6.60
2019-02-21T22:54:41.408Z,6.60
2019-02-21T22:57:34.848Z,6.60
2019-02-21T23:00:39.722Z,6.60
2019-02-21T23:03:14.439Z,6.60
2019-02-21T23:06:13.447Z,6.60
2019-02-21T23:08:54.407Z,6.50
2019-02-21T23:11:25.062Z,6.50
2019-02-21T23:14:00.892Z,6.60
2019-02-21T23:16:38.398Z,6.50
2019-02-21T23:19:12.946Z,6.50
2019-02-21T23:21:52.059Z,6.50
2019-02-21T23:24:24.908Z,6.60
2019-02-21T23:27:18.830Z,6.60
2019-02-21T23:29:59.662Z,6.50
2019-02-21T23:32:40.131Z,6.60
2019-02-21T23:35:19.052Z,6.60
2019-02-21T23:37:50.178Z,6.60
2019-02-21T23:40:21.625Z,6.60
2019-02-21T23:42:58.667Z,6.60
2019-02-21T23:45:38.746Z,6.60
2019-02-21T23:48:08.833Z,6.60
2019-02-21T23:50:42.693Z,6.50
2019-02-21T23:53:17.060Z,6.50
2019-02-21T23:55:50.750Z,6.50
2019-02-21T23:58:34.058Z,6.50
